Latest Weather Observations for Parkes Airport

IDN60801

Issued at 9:02 pm EDT Sunday 26 February 2017 (issued every 30 minutes, with the page automatically refreshed every 10 minutes)

About weather observations | Map of weather stations | Latest weather observations for NSW | Other Formats
Station Details ID: 065068 Name: PARKES AIRPORT AWS Lat: -33.13 Lon: 148.24 Height: 323.3 m
Data from the previous 72 hours. | See also: Recent months at Parkes Airport
Date/Time
EDT
Temp
°C
App
Temp
°C
Dew
Point
°C
Rel
Hum
%
Delta-T
°C
Wind Press
QNH
hPa
Press
MSL
hPa
Rain since
9am
mm
Dir  Spd
km/h
Gust
km/h
Spd
kts
Gust
kts
26/08:30pm 25.5 20.9 9.7 37 8.8 E 24 32 13 17 1018.4 1016.6 0.0
26/08:00pm 26.1 22.2 9.5 35 9.2 E 20 28 11 15 1017.9 1016.1 0.0
26/07:30pm 27.5 22.8 9.3 32 10.2 E 24 33 13 18 1017.5 1015.7 0.0
26/07:00pm 27.9 24.4 8.7 30 10.7 ESE 17 22 9 12 1017.3 1015.5 0.0
26/06:30pm 28.7 24.5 8.4 28 11.3 ESE 20 30 11 16 1017.0 1015.3 0.0
26/06:00pm 29.4 27.9 9.0 28 11.5 E 7 11 4 6 1016.8 1015.1 0.0
26/05:30pm 29.9 25.9 8.9 27 11.8 ESE 20 28 11 15 1016.7 1015.0 0.0
26/05:00pm 30.5 26.4 8.8 26 12.2 E 20 33 11 18 1016.7 1015.0 0.0
26/04:30pm 30.4 27.0 9.3 27 12.0 E 17 26 9 14 1016.9 1015.2 0.0
26/04:00pm 28.8 26.2 9.5 30 10.9 NE 13 20 7 11 1017.3 1015.5 0.0
26/03:30pm 30.5 27.5 10.5 29 11.6 NE 17 28 9 15 1017.6 1015.8 0.0
26/03:00pm 29.7 26.6 10.3 30 11.1 ENE 17 22 9 12 1018.0 1016.2 0.0
26/02:30pm 28.4 25.0 10.6 33 10.2 ENE 19 26 10 14 1018.3 1016.5 0.0
26/02:00pm 28.4 25.0 10.6 33 10.2 E 19 30 10 16 1018.6 1016.9 0.0
26/01:30pm 27.5 23.2 10.7 35 9.6 E 24 32 13 17 1019.0 1017.3 0.0
26/01:00pm 29.0 26.0 12.0 35 10.0 E 19 35 10 19 1019.2 1017.5 0.0
26/12:30pm 28.4 24.1 11.9 36 9.7 ENE 26 37 14 20 1019.5 1017.8 0.0
26/12:00pm 27.4 22.8 11.0 36 9.4 E 26 33 14 18 1020.0 1018.3 0.0
26/11:30am 27.6 24.0 12.0 38 9.1 ENE 22 32 12 17 1020.2 1018.5 0.0
26/11:00am 26.7 22.4 12.0 40 8.6 ENE 26 35 14 19 1020.6 1018.8 0.0
26/10:30am 25.5 21.2 12.0 43 7.8 ENE 26 35 14 19 1020.4 1018.7 0.0
26/10:00am 24.8 20.6 12.4 46 7.2 ENE 26 39 14 21 1020.3 1018.6 0.0
26/09:30am 23.4 18.9 12.7 51 6.2 ENE 28 39 15 21 1020.1 1018.4 0.0
26/09:00am 22.5 17.9 12.4 52 5.8 ENE 28 39 15 21 1019.9 1018.2 0.0
26/08:30am 22.2 18.1 12.7 55 5.5 ENE 26 39 14 21 1019.7 1018.0 0.0
26/08:00am 20.8 18.2 13.3 62 4.3 E 19 24 10 13 1019.6 1017.9 0.0
26/07:30am 19.9 17.6 13.1 65 3.9 E 17 22 9 12 1019.2 1017.5 0.0
26/07:00am 19.2 16.5 12.9 67 3.6 E 19 24 10 13 1018.7 1017.0 0.0
26/06:30am 18.8 17.3 13.0 69 3.3 ESE 13 17 7 9 1018.4 1016.6 0.0
26/06:00am 18.5 17.6 12.7 69 3.3 E 9 13 5 7 1017.8 1016.0 0.0
26/05:30am 18.6 17.7 12.6 68 3.4 E 9 13 5 7 1017.5 1015.7 0.0
26/05:00am 18.9 17.6 12.6 67 3.6 E 11 15 6 8 1017.4 1015.6 0.0
26/04:30am 19.6 17.3 13.1 66 3.7 ENE 17 28 9 15 1017.4 1015.6 0.0
26/04:00am 19.8 17.0 13.3 66 3.8 E 20 26 11 14 1017.3 1015.5 0.0
26/03:30am 19.9 17.3 13.1 65 3.9 ESE 19 28 10 15 1017.4 1015.6 0.0
26/03:00am 19.6 18.6 13.3 67 3.6 E 11 22 6 12 1017.5 1015.7 0.0
26/02:30am 19.6 18.5 13.1 66 3.7 E 11 15 6 8 1017.8 1016.0 0.0
26/02:00am 19.8 18.4 13.3 66 3.8 E 13 19 7 10 1018.0 1016.2 0.0
26/01:30am 20.1 19.1 13.3 65 3.9 E 11 19 6 10 1018.2 1016.4 0.0
26/01:00am 20.4 17.3 13.4 64 4.1 ENE 22 33 12 18 1018.0 1016.2 0.0
26/12:30am 20.7 18.0 13.4 63 4.2 ENE 20 32 11 17 1017.8 1016.0 0.0
26/12:00am 20.9 16.7 13.6 63 4.3 ENE 28 39 15 21 1017.3 1015.5 0.0
 
Date/Time
EDT
Temp
°C
App
Temp
°C
Dew
Point
°C
Rel
Hum
%
Delta-T
°C
Wind Press
QNH
hPa
Press
MSL
hPa
Rain since
9am
mm
Dir  Spd
km/h
Gust
km/h
Spd
kts
Gust
kts
25/11:30pm 20.9 17.9 13.6 63 4.3 E 22 35 12 19 1017.0 1015.3 0.0
25/11:00pm 21.4 16.9 13.8 62 4.5 ENE 30 39 16 21 1016.8 1015.1 0.0
25/10:30pm 21.8 18.5 13.9 61 4.7 ENE 24 35 13 19 1016.9 1015.2 0.0
25/10:00pm 22.3 21.3 14.7 62 4.5 E 13 24 7 13 1016.9 1015.2 0.0
25/09:30pm 22.7 20.5 14.8 61 4.7 ENE 20 32 11 17 1016.4 1014.7 0.0
25/09:00pm 23.4 20.3 14.4 57 5.4 E 24 32 13 17 1015.7 1014.0 0.0
25/08:30pm 24.3 20.9 13.8 52 6.2 ENE 24 32 13 17 1015.0 1013.2 0.0
25/08:00pm 25.5 20.9 13.4 47 7.2 ENE 30 43 16 23 1014.7 1012.9 0.0
25/07:30pm 27.9 24.1 12.3 38 9.2 E 24 37 13 20 1014.3 1012.5 0.0
25/07:00pm 31.5 25.5 3.5 17 14.5 SSW 24 32 13 17 1013.3 1011.6 0.0
25/06:30pm 32.1 26.0 4.8 18 14.5 SW 26 32 14 17 1013.2 1011.5 0.0
25/06:00pm 32.6 26.9 6.7 20 14.3 SW 26 37 14 20 1013.1 1011.4 0.0
25/05:30pm 33.1 28.4 7.9 21 14.2 SW 22 39 12 21 1013.1 1011.4 0.0
25/05:00pm 34.3 29.7 5.8 17 15.6 WSW 19 28 10 15 1013.2 1011.5 0.0
25/04:30pm 33.0 29.0 4.7 17 15.1 SSE 15 20 8 11 1013.6 1011.9 0.0
25/04:00pm 33.5 31.0 6.7 19 14.8 WSW 9 20 5 11 1013.9 1012.2 0.0
25/03:30pm 33.7 30.3 6.1 18 15.1 W 13 24 7 13 1014.5 1012.7 0.0
25/03:00pm 34.3 32.7 10.2 23 14.1 NE 9 17 5 9 1014.8 1013.0 0.0
25/02:30pm 32.1 30.2 9.0 24 13.2 WSW 9 15 5 8 1015.3 1013.5 0.0
25/02:00pm 32.0 28.9 8.9 24 13.1 NNW 15 26 8 14 1015.8 1014.1 0.0
25/01:30pm 31.5 29.9 10.2 27 12.3 ESE 9 22 5 12 1016.1 1014.4 0.0
25/01:00pm 31.6 29.9 9.8 26 12.5 SSW 9 17 5 9 1016.5 1014.8 0.0
25/12:30pm 30.7 28.3 10.1 28 11.9 NNW 13 20 7 11 1016.8 1015.1 0.0
25/12:00pm 30.3 28.8 11.8 32 10.9 NNE 11 26 6 14 1017.4 1015.6 0.0
25/11:30am 29.5 27.8 12.4 35 10.2 NNE 13 28 7 15 1017.8 1016.0 0.0
25/11:00am 28.5 26.3 14.3 41 8.6 NNE 19 26 10 14 1018.1 1016.3 0.0
25/10:30am 27.9 26.3 14.9 45 8.0 NNE 17 26 9 14 1018.3 1016.5 0.0
25/10:00am 27.1 25.7 15.5 49 7.2 NE 17 24 9 13 1018.4 1016.6 0.0
25/09:30am 25.7 23.8 15.1 52 6.5 NE 19 28 10 15 1018.4 1016.6 0.0
25/09:00am 24.6 22.5 15.2 55 5.7 NE 20 26 11 14 1018.3 1016.5 0.0
25/08:30am 23.5 21.5 15.5 60 4.9 ENE 20 28 11 15 1018.3 1016.5 0.0
25/08:00am 22.2 21.2 15.5 66 4.1 NE 15 22 8 12 1018.2 1016.4 0.0
25/07:30am 19.4 19.0 15.3 77 2.4 NNE 11 13 6 7 1018.0 1016.2 0.0
25/07:26am 18.7 18.2 15.0 79 2.2 NNE 11 13 6 7 1018.0 1016.2 0.0
25/07:00am 13.7 11.4 5.6 58 3.9 NNE 7 11 4 6 1017.9 1016.1 0.0
25/06:30am 14.0 10.6 6.1 59 3.8 NE 13 15 7 8 1017.5 1015.7 0.0
25/06:00am 13.1 10.5 4.0 54 4.2 N 7 9 4 5 1017.4 1015.6 0.0
25/05:30am 13.3 11.5 3.7 52 4.4 ENE 2 7 1 4 1017.1 1015.4 0.0
25/05:00am 13.1 10.1 4.0 54 4.2 ENE 9 11 5 6 1016.8 1015.1 0.0
25/04:30am 12.3 9.1 3.3 54 4.1 NE 9 11 5 6 1016.7 1015.0 0.0
25/04:00am 12.5 8.9 2.9 52 4.3 ENE 11 13 6 7 1016.7 1015.0 0.0
25/03:30am 14.6 13.0 2.2 43 5.6 CALM 0 0 0 0 1016.5 1014.8 0.0
25/03:00am 16.0 13.2 3.1 42 6.0 E 7 9 4 5 1016.8 1015.1 0.0
25/02:30am 19.0 16.1 2.4 33 7.8 SSW 7 9 4 5 1016.7 1015.0 0.0
25/02:00am 17.7 13.6 2.5 36 7.0 SSW 13 15 7 8 1016.7 1015.0 0.0
25/01:30am 17.3 14.1 2.9 38 6.7 SW 9 11 5 6 1017.0 1015.3 0.0
25/01:00am 17.1 15.4 1.9 36 6.9 CALM 0 0 0 0 1017.4 1015.6 0.0
25/12:30am 19.8 16.9 2.6 32 8.1 WSW 7 9 4 5 1017.7 1015.9 0.0
25/12:00am 17.5 14.7 2.3 36 7.0 N 6 9 3 5 1017.8 1016.0 0.0
 
Date/Time
EDT
Temp
°C
App
Temp
°C
Dew
Point
°C
Rel
Hum
%
Delta-T
°C
Wind Press
QNH
hPa
Press
MSL
hPa
Rain since
9am
mm
Dir  Spd
km/h
Gust
km/h
Spd
kts
Gust
kts
24/11:30pm 19.3 16.4 1.3 30 8.3 SSW 6 9 3 5 1017.7 1015.9 0.0
24/11:00pm 20.1 15.9 1.5 29 8.6 SSW 13 15 7 8 1017.7 1015.9 0.0
24/10:30pm 22.4 18.5 1.4 25 9.9 SSW 11 13 6 7 1017.7 1015.9 0.0
24/10:00pm 23.3 19.8 1.0 23 10.5 SSW 9 13 5 7 1017.6 1015.8 0.0
24/09:30pm 25.1 20.5 1.3 21 11.4 SSW 15 17 8 9 1017.5 1015.7 0.0
24/09:00pm 24.9 20.6 1.1 21 11.3 SSW 13 13 7 7 1017.1 1015.4 0.0
24/08:30pm 26.3 22.1 1.6 20 12.0 SSW 13 13 7 7 1016.8 1015.1 0.0
24/08:00pm 29.1 24.1 1.6 17 13.6 SSW 17 22 9 12 1016.4 1014.7 0.0
24/07:30pm 31.4 25.5 1.7 15 15.0 SSW 22 30 12 16 1016.1 1014.4 0.0
24/07:00pm 33.0 26.8 2.0 14 15.8 SSW 24 30 13 16 1015.9 1014.2 0.0
24/06:30pm 33.9 27.8 2.7 14 16.2 SW 24 33 13 18 1015.7 1014.0 0.0
24/06:00pm 34.6 27.8 3.2 14 16.5 SW 28 35 15 19 1015.7 1014.0 0.0
24/05:30pm 35.2 28.3 2.6 13 17.0 SW 28 37 15 20 1015.6 1013.8 0.0
24/05:00pm 35.9 29.9 3.2 13 17.3 SW 24 35 13 19 1015.5 1013.7 0.0
24/04:30pm 36.0 30.2 2.1 12 17.7 WSW 22 35 12 19 1015.5 1013.7 0.0
24/04:00pm 36.1 29.5 2.2 12 17.7 WSW 26 37 14 20 1015.6 1013.8 0.0
24/03:30pm 36.7 31.7 1.5 11 18.2 SW 17 33 9 18 1015.8 1014.1 0.0
24/03:00pm 36.4 31.2 2.5 12 17.8 SW 19 33 10 18 1016.2 1014.5 0.0
24/02:30pm 35.7 30.2 1.9 12 17.5 WSW 20 35 11 19 1016.6 1014.9 0.0
24/02:00pm 35.3 29.4 1.6 12 17.3 SW 22 33 12 18 1017.3 1015.5 0.0
24/01:30pm 35.2 30.8 4.7 15 16.5 SSW 17 24 9 13 1017.6 1015.8 0.0
24/01:00pm 34.6 30.1 4.2 15 16.2 SW 17 24 9 13 1018.0 1016.2 0.0
24/12:30pm 33.9 30.4 5.4 17 15.5 SSW 13 20 7 11 1018.5 1016.8 0.0
24/12:00pm 33.4 30.0 5.9 18 15.0 SSW 13 20 7 11 1019.0 1017.3 0.0
24/11:30am 31.8 28.4 6.1 20 14.0 SW 13 20 7 11 1019.3 1017.6 0.0
24/11:00am 30.3 27.3 6.2 22 13.0 WSW 11 15 6 8 1019.5 1017.8 0.0
24/10:30am 29.3 26.1 6.7 24 12.2 SW 13 19 7 10 1019.7 1018.0 0.0
24/10:00am 28.4 25.6 7.1 26 11.5 SW 11 19 6 10 1019.5 1017.8 0.0
24/09:30am 26.6 23.2 6.1 27 10.8 SW 13 17 7 9 1019.5 1017.8 0.0
24/09:00am 24.7 21.4 6.4 31 9.6 SW 13 17 7 9 1019.5 1017.8 0.0
24/08:30am 22.4 21.8 7.4 38 7.9 CALM 0 0 0 0 1019.2 1017.5 0.0
24/08:00am 19.2 19.0 9.1 52 5.4 CALM 0 0 0 0 1019.2 1017.5 0.0
24/07:30am 16.7 14.8 9.1 61 4.0 ENE 9 11 5 6 1018.8 1017.1 0.0
24/07:00am 15.3 14.3 7.3 59 4.0 E 2 7 1 4 1018.4 1016.6 0.0
24/06:30am 16.2 15.3 7.7 57 4.3 ENE 2 11 1 6 1018.2 1016.4 0.0
24/06:00am 17.0 14.9 8.2 56 4.5 E 9 11 5 6 1017.8 1016.0 0.0
24/05:30am 16.1 14.4 8.3 60 4.0 N 7 15 4 8 1017.7 1015.9 0.0
24/05:00am 16.9 16.6 8.8 59 4.2 CALM 0 4 0 2 1017.5 1015.7 0.0
24/04:30am 16.6 14.1 8.3 58 4.3 E 11 15 6 8 1017.5 1015.7 0.0
24/04:00am 18.3 16.0 9.1 55 4.9 E 11 15 6 8 1017.6 1015.8 0.0
24/03:30am 17.9 16.4 8.5 54 4.9 E 6 9 3 5 1017.6 1015.8 0.0
24/03:00am 18.3 17.7 8.8 54 5.0 ESE 2 6 1 3 1017.7 1015.9 0.0
24/02:30am 19.1 17.4 8.4 50 5.6 ESE 7 9 4 5 1017.8 1016.0 0.0
24/02:00am 19.9 19.5 8.3 47 6.1 CALM 0 0 0 0 1017.8 1016.0 0.0
24/01:30am 20.9 20.6 8.5 45 6.6 CALM 0 6 0 3 1017.9 1016.1 0.0
24/01:00am 22.3 21.6 8.4 41 7.4 ENE 2 6 1 3 1017.9 1016.1 0.0
24/12:30am 23.0 22.8 9.0 41 7.6 CALM 0 0 0 0 1017.9 1016.1 0.0
24/12:00am 23.4 22.2 9.4 41 7.7 WSW 6 7 3 4 1017.8 1016.0 0.0
 
Date/Time
EDT
Temp
°C
App
Temp
°C
Dew
Point
°C
Rel
Hum
%
Delta-T
°C
Wind Press
QNH
hPa
Press
MSL
hPa
Rain since
9am
mm
Dir  Spd
km/h
Gust
km/h
Spd
kts
Gust
kts
23/11:30pm 24.5 22.7 9.6 39 8.3 SW 9 13 5 7 1017.9 1016.1 0.0
23/11:00pm 21.8 20.0 9.3 45 6.8 NNE 9 11 5 6 1017.6 1015.8 0.0
23/10:30pm 23.8 22.7 10.8 44 7.3 NE 7 13 4 7 1017.6 1015.8 0.0
23/10:00pm 25.3 24.3 11.1 41 8.1 NE 7 9 4 5 1017.6 1015.8 0.0
23/09:30pm 23.9 22.1 9.5 40 7.9 ENE 9 13 5 7 1017.4 1015.6 0.0

Other Formats:

Comma delimited format used in spreadsheet applications
http://www.bom.gov.au/fwo/IDN60801/IDN60801.95717.axf

JavaScript Object Notation format (JSON) in row-major order
http://www.bom.gov.au/fwo/IDN60801/IDN60801.95717.json